KRNT - Renton
Updated: Tue, 21-Aug-2018 8:53am PDT
Haze, Smoke, Clear
Haze, Smoke, Clear
 Wind from NNW
Wind: NNW 3 mph , 6 km/h
Temperature: 68°F , 20°C
Dew Point: 63°F , 17°C
Humidity: 83%
Barometer: 30.06 inHg , 1017.9 hPa
Summary: Haze, Smoke
Visibility: 3 miles , 5 km
2018/08/21 15:53 KRNT 211553Z 33003KT 3SM HZ FU CLR 20/17 A3006 RMK AO2 SLP185 T02000167
KBFI - Seattle-Boeing
Updated: Tue, 21-Aug-2018 8:53am PDT
Haze, Smoke, Clear
Haze, Smoke, Clear
 Wind from calm
Wind: Calm
Temperature: 70°F , 21°C
Dew Point: 57°F , 14°C
Humidity: 64%
Barometer: 30.06 inHg , 1017.9 hPa
Summary: Haze, Smoke
Visibility: 3 miles , 5 km
2018/08/21 15:53 KBFI 211553Z 00000KT 3SM HZ FU CLR 21/14 A3006 RMK AO2 SLP180 T02060144
 
KSEA - Seattle
Updated: Tue, 21-Aug-2018 9:29am PDT
Smoke, Haze, Few clouds
Smoke, Haze, Few clouds
 Wind from E
Wind: E 8 mph , 13 km/h
Temperature: 79°F , 26°C
Dew Point: 48°F , 9°C
Humidity: 34%
Barometer: 30.07 inHg , 1018.3 hPa
Summary: Smoke, Haze
Visibility: 2 miles , 3 km
Cloud details: 5000 ft
2018/08/21 16:29 KSEA 211629Z 08007KT 2SM FU HZ FEW050 26/09 A3007 RMK AO2 TWR VIS 5 FU FEW050 T02560089
KSMP - Stampede Pass
Updated: Tue, 21-Aug-2018 8:56am PDT
Haze, Partly cloudy
Haze, Partly cloudy
 Wind from varies
Wind: varies 3 mph , 6 km/h
Temperature: 63°F , 17°C
Dew Point: 45°F , 7°C
Humidity: 52%
Barometer: 30.24 inHg , 1024 hPa
Visibility: 6 miles , 10 km
Cloud details: 4200 ft
2018/08/21 15:56 KSMP 211556Z AUTO VRB03KT 6SM HZ SCT042 17/07 A3024 RMK AO2 SLP215 T01670067